Bennington, Minnesota
Current Conditions -  °F | °C
As of 6:54 AM on Thursday 23 Oct 2014 (Local Time) from KRST Reporting Station
Moderate Rain Moderate Rain  
Wind Chill: 44°   Ceiling: 6000
Heat Index: 48°   Visibility: 5mi
Dew Point: 46°   Wind: 9mph
Humidity: 93%   Direction: 180°S
Pressure: 30.03"   Gusts: NA
Location:  43.7143°N, 92.5748°W
Report Text: KRST 231154Z 18008KT 5SM RA BR FEW021 BKN060 OVC075 09/08 A3003 RMK AO2 SLP174 P0010 60010 70010 T00890078 10111 20089 58007
Loading
Personal Weather Stations






























Interactive Weather Map
Tropical Storm Tracking
New forecast layout! Learn more

10-Day Weather Forecast

Advertisements
Track Severe Weather on mobile